createdAt,value
2023-05-02T00:00:45.668Z,3.97
2023-05-02T00:03:50.861Z,4.32
2023-05-02T00:06:55.807Z,3.72
2023-05-02T00:10:01.649Z,3.47
2023-05-02T00:13:05.051Z,3.63
2023-05-02T00:16:09.872Z,3.08
2023-05-02T00:19:14.213Z,3.55
2023-05-02T00:22:17.935Z,3.10
2023-05-02T00:25:21.325Z,2.97
2023-05-02T00:28:26.554Z,3.12
2023-05-02T00:31:29.769Z,2.67
2023-05-02T00:34:33.915Z,2.85
2023-05-02T00:37:37.058Z,3.33
2023-05-02T00:40:48.839Z,3.10
2023-05-02T00:43:51.861Z,2.87
2023-05-02T00:46:56.660Z,3.12
2023-05-02T00:50:01.378Z,3.70
2023-05-02T00:53:05.594Z,4.53
2023-05-02T00:56:09.913Z,4.37
2023-05-02T00:59:14.300Z,3.95
2023-05-02T01:02:35.552Z,3.70
2023-05-02T01:06:03.392Z,3.87
2023-05-02T01:09:06.599Z,3.65
2023-05-02T01:12:20.637Z,3.53
2023-05-02T01:15:24.204Z,3.80
2023-05-02T01:18:32.845Z,3.62
2023-05-02T01:21:37.778Z,4.07
2023-05-02T01:25:20.302Z,3.20
2023-05-02T01:29:01.104Z,3.63
2023-05-02T01:32:06.701Z,3.30
2023-05-02T01:35:11.418Z,3.55
2023-05-02T01:38:16.832Z,3.50
2023-05-02T01:41:21.382Z,3.80
2023-05-02T01:44:26.956Z,3.92
2023-05-02T01:47:33.815Z,4.07
2023-05-02T01:50:39.555Z,3.53
2023-05-02T01:53:44.649Z,4.30
2023-05-02T01:56:49.408Z,5.68
2023-05-02T01:59:56.984Z,5.22
2023-05-02T02:03:01.956Z,3.75
2023-05-02T02:06:06.339Z,3.00
2023-05-02T02:09:10.009Z,3.47
2023-05-02T02:12:29.631Z,3.20
2023-05-02T02:15:38.480Z,2.78
2023-05-02T02:18:44.864Z,3.33
2023-05-02T02:21:50.368Z,2.90
2023-05-02T02:24:54.807Z,3.67
2023-05-02T02:27:58.568Z,2.97
2023-05-02T02:31:02.037Z,2.97
2023-05-02T02:34:06.573Z,3.00
2023-05-02T02:37:16.904Z,2.92
2023-05-02T02:40:35.484Z,2.95
2023-05-02T02:43:50.896Z,3.33
2023-05-02T02:47:12.422Z,3.50
2023-05-02T02:50:23.371Z,3.15
2023-05-02T02:53:35.278Z,3.05
2023-05-02T02:56:41.716Z,3.33
2023-05-02T03:00:04.016Z,3.47
2023-05-02T03:03:08.320Z,3.00
2023-05-02T03:06:12.050Z,3.12
2023-05-02T03:09:19.453Z,3.30
2023-05-02T03:12:23.308Z,3.87
2023-05-02T03:15:53.423Z,4.00
2023-05-02T03:18:57.528Z,3.28
2023-05-02T03:22:03.438Z,3.90
2023-05-02T03:25:07.798Z,4.25
2023-05-02T03:28:11.320Z,4.07
2023-05-02T03:31:15.774Z,3.92
2023-05-02T03:34:19.962Z,4.15
2023-05-02T03:37:23.497Z,3.95
2023-05-02T03:40:27.927Z,3.85
2023-05-02T03:43:31.993Z,3.60
2023-05-02T03:46:36.660Z,3.70
2023-05-02T03:49:41.690Z,3.78
2023-05-02T03:52:45.009Z,4.05
2023-05-02T03:55:49.129Z,3.67
2023-05-02T03:58:54.078Z,4.20
2023-05-02T04:01:59.539Z,3.85
2023-05-02T04:05:03.536Z,3.73
2023-05-02T04:08:07.018Z,3.85
2023-05-02T04:11:10.696Z,4.50
2023-05-02T04:14:14.279Z,4.30
2023-05-02T04:17:18.432Z,3.62
2023-05-02T04:20:22.357Z,3.92
2023-05-02T04:23:26.262Z,4.30
2023-05-02T04:26:30.106Z,4.57
2023-05-02T04:29:34.312Z,4.90
2023-05-02T04:32:38.204Z,4.30
2023-05-02T04:35:42.232Z,3.97
2023-05-02T04:38:46.179Z,4.03
2023-05-02T04:41:50.985Z,3.40
2023-05-02T04:44:54.686Z,4.28
2023-05-02T04:47:58.240Z,3.97
2023-05-02T04:51:02.761Z,4.30
2023-05-02T04:54:08.977Z,3.70
2023-05-02T04:57:12.299Z,3.87
2023-05-02T05:00:16.588Z,4.00
2023-05-02T05:03:21.915Z,3.87
2023-05-02T05:06:25.782Z,3.72
2023-05-02T05:09:29.049Z,3.45
2023-05-02T05:12:32.608Z,3.33
2023-05-02T05:15:35.834Z,3.80
2023-05-02T05:18:40.957Z,3.35
2023-05-02T05:21:45.141Z,3.90
2023-05-02T05:24:53.702Z,4.10
2023-05-02T05:28:00.666Z,3.97
2023-05-02T05:31:09.399Z,4.33
2023-05-02T05:34:14.815Z,3.87
2023-05-02T05:37:18.992Z,4.40
2023-05-02T05:40:22.528Z,4.35
2023-05-02T05:43:26.517Z,4.90
2023-05-02T05:46:30.006Z,4.80
2023-05-02T05:49:38.564Z,5.03
2023-05-02T05:52:44.830Z,4.87
2023-05-02T05:55:48.312Z,3.60
2023-05-02T05:58:51.768Z,4.70
2023-05-02T06:01:55.347Z,4.13
2023-05-02T06:04:59.472Z,3.50
2023-05-02T06:08:02.965Z,4.03
2023-05-02T06:11:13.756Z,4.28
2023-05-02T06:14:17.106Z,3.80
2023-05-02T06:17:22.508Z,3.83
2023-05-02T06:20:26.387Z,3.87
2023-05-02T06:23:29.599Z,3.35
2023-05-02T06:26:32.917Z,3.20
2023-05-02T06:29:36.449Z,3.22
2023-05-02T06:32:39.585Z,3.57
2023-05-02T06:35:43.783Z,3.90
2023-05-02T06:38:49.427Z,3.60
2023-05-02T06:41:58.171Z,4.05
2023-05-02T06:45:02.380Z,3.62
2023-05-02T06:48:07.150Z,5.50
2023-05-02T06:51:11.502Z,5.87
2023-05-02T06:54:16.941Z,4.22
2023-05-02T06:57:20.162Z,3.53
2023-05-02T07:00:24.848Z,3.90
2023-05-02T07:03:28.130Z,4.23
2023-05-02T07:06:32.255Z,3.50
2023-05-02T07:09:36.690Z,3.75
2023-05-02T07:12:40.687Z,3.50
2023-05-02T07:15:44.182Z,4.20
2023-05-02T07:18:47.604Z,3.60
2023-05-02T07:21:51.101Z,4.07
2023-05-02T07:25:03.238Z,3.60
2023-05-02T07:28:06.884Z,3.37
2023-05-02T07:31:10.243Z,3.55
2023-05-02T07:34:13.439Z,3.87
2023-05-02T07:37:17.034Z,3.83
2023-05-02T07:40:20.218Z,3.90
2023-05-02T07:43:23.726Z,3.78
2023-05-02T07:46:26.931Z,3.65
2023-05-02T07:49:31.541Z,3.63
2023-05-02T07:52:34.997Z,3.70
2023-05-02T07:55:39.073Z,3.70
2023-05-02T07:58:42.148Z,3.55
2023-05-02T08:01:46.298Z,3.50
2023-05-02T08:04:50.305Z,3.33
2023-05-02T08:07:53.375Z,3.10
2023-05-02T08:10:56.826Z,2.92
2023-05-02T08:14:00.005Z,3.28
2023-05-02T08:17:03.353Z,2.87
2023-05-02T08:20:07.061Z,2.87
2023-05-02T08:23:10.831Z,3.00
2023-05-02T08:26:13.878Z,2.53
2023-05-02T08:29:17.680Z,2.65
2023-05-02T08:32:22.848Z,2.90
2023-05-02T08:35:28.796Z,3.20
2023-05-02T08:38:31.845Z,2.80
2023-05-02T08:41:35.846Z,3.22
2023-05-02T08:44:42.316Z,5.72
2023-05-02T08:47:47.315Z,3.00
2023-05-02T08:50:52.569Z,2.87
2023-05-02T08:53:56.479Z,2.80
2023-05-02T08:57:03.818Z,2.80
2023-05-02T09:00:08.252Z,3.30
2023-05-02T09:03:31.934Z,3.67
2023-05-02T09:06:36.737Z,3.37
2023-05-02T09:09:39.926Z,3.67
2023-05-02T09:12:44.085Z,2.78
2023-05-02T09:15:59.732Z,2.62
2023-05-02T09:19:03.059Z,2.78
2023-05-02T09:22:06.289Z,2.70
2023-05-02T09:25:10.333Z,3.13
2023-05-02T09:28:13.461Z,2.65
2023-05-02T09:31:37.508Z,3.25
2023-05-02T09:35:06.463Z,3.25
2023-05-02T09:38:23.033Z,3.30
2023-05-02T09:41:26.473Z,3.00
2023-05-02T09:44:38.212Z,3.20
2023-05-02T09:47:41.477Z,3.47
2023-05-02T09:50:45.236Z,3.10
2023-05-02T09:53:48.581Z,3.20
2023-05-02T09:56:59.173Z,3.30
2023-05-02T10:00:02.358Z,2.70
2023-05-02T10:03:17.935Z,3.30
2023-05-02T10:06:22.956Z,3.50
2023-05-02T10:09:28.301Z,2.90
2023-05-02T10:12:34.119Z,2.50
2023-05-02T10:15:43.961Z,2.50
2023-05-02T10:19:07.613Z,2.95
2023-05-02T10:22:12.797Z,2.78
2023-05-02T10:25:16.474Z,2.83
2023-05-02T10:28:20.660Z,2.70
2023-05-02T10:31:25.393Z,2.70
2023-05-02T10:34:32.855Z,3.00
2023-05-02T10:37:38.801Z,2.78
2023-05-02T10:40:43.599Z,2.37
2023-05-02T10:43:49.316Z,2.50
2023-05-02T10:46:52.528Z,3.65
2023-05-02T10:50:03.354Z,2.75
2023-05-02T10:53:34.497Z,2.70
2023-05-02T10:57:03.521Z,2.70
2023-05-02T11:00:34.145Z,2.43
2023-05-02T11:03:57.474Z,2.50
2023-05-02T11:07:00.750Z,2.62
2023-05-02T11:10:25.406Z,2.80
2023-05-02T11:13:51.199Z,2.90
2023-05-02T11:17:09.892Z,2.90
2023-05-02T11:20:13.071Z,2.97
2023-05-02T11:23:18.363Z,2.72
2023-05-02T11:26:26.167Z,2.55
2023-05-02T11:29:51.822Z,2.90
2023-05-02T11:32:59.324Z,2.53
2023-05-02T11:36:03.153Z,2.58
2023-05-02T11:39:19.992Z,2.50
2023-05-02T11:42:34.268Z,2.53
2023-05-02T11:45:38.231Z,2.33
2023-05-02T11:48:42.870Z,2.27
2023-05-02T11:51:46.072Z,3.20
2023-05-02T11:54:55.966Z,2.42
2023-05-02T11:58:00.230Z,2.50
2023-05-02T12:01:14.959Z,2.70
2023-05-02T12:04:22.138Z,2.80
2023-05-02T12:07:36.139Z,3.12
2023-05-02T12:10:39.683Z,2.90
2023-05-02T12:13:50.285Z,2.40
2023-05-02T12:16:55.217Z,2.40
2023-05-02T12:19:59.073Z,3.07
2023-05-02T12:23:07.036Z,2.80
2023-05-02T12:26:29.623Z,2.50
2023-05-02T12:29:44.280Z,2.50
2023-05-02T12:32:58.436Z,2.47
2023-05-02T12:36:07.542Z,3.20
2023-05-02T12:39:10.933Z,2.60
2023-05-02T12:42:16.193Z,2.50
2023-05-02T12:45:19.398Z,2.72
2023-05-02T12:48:27.795Z,2.47
2023-05-02T12:51:31.890Z,2.63
2023-05-02T12:54:35.977Z,2.97
2023-05-02T12:57:39.264Z,2.80
2023-05-02T13:00:45.558Z,2.70
2023-05-02T13:03:51.614Z,2.80
2023-05-02T13:06:55.275Z,2.70
2023-05-02T13:09:58.283Z,3.03
2023-05-02T13:13:01.814Z,2.60
2023-05-02T13:16:05.563Z,2.67
2023-05-02T13:19:09.730Z,2.70
2023-05-02T13:22:12.924Z,2.80
2023-05-02T13:25:16.768Z,2.72
2023-05-02T13:28:19.914Z,3.05
2023-05-02T13:31:23.722Z,2.90
2023-05-02T13:34:26.929Z,3.10
2023-05-02T13:37:31.423Z,2.80
2023-05-02T13:40:34.707Z,2.60
2023-05-02T13:43:41.835Z,2.92
2023-05-02T13:46:45.331Z,3.47
2023-05-02T13:49:49.977Z,2.67
2023-05-02T13:52:53.221Z,2.70
2023-05-02T13:55:56.844Z,2.58
2023-05-02T13:58:59.945Z,2.83
2023-05-02T14:02:03.474Z,2.35
2023-05-02T14:05:07.922Z,2.50
2023-05-02T14:08:12.081Z,2.40
2023-05-02T14:11:15.753Z,2.60
2023-05-02T14:14:18.885Z,2.30
2023-05-02T14:17:25.222Z,2.60
2023-05-02T14:20:30.237Z,2.70
2023-05-02T14:23:34.111Z,2.40
2023-05-02T14:26:37.318Z,2.40
2023-05-02T14:29:40.852Z,2.05
2023-05-02T14:32:43.985Z,2.42
2023-05-02T14:35:47.252Z,2.07
2023-05-02T14:38:50.361Z,2.40
2023-05-02T14:41:55.082Z,3.42
2023-05-02T14:45:05.868Z,2.65
2023-05-02T14:48:10.482Z,2.55
2023-05-02T14:51:14.710Z,3.47
2023-05-02T14:54:20.442Z,2.90
2023-05-02T14:57:23.680Z,3.33
2023-05-02T15:00:28.263Z,2.50
2023-05-02T15:03:31.470Z,2.95
2023-05-02T15:06:36.438Z,3.57
2023-05-02T15:09:40.008Z,3.10
2023-05-02T15:12:43.512Z,19.37
2023-05-02T15:15:49.797Z,29.83
2023-05-02T15:18:53.672Z,5.10
2023-05-02T15:22:00.082Z,3.67
2023-05-02T15:25:05.347Z,3.40
2023-05-02T15:28:08.820Z,3.58
2023-05-02T15:31:12.199Z,3.20
2023-05-02T15:34:15.584Z,5.70
2023-05-02T15:37:18.936Z,3.27
2023-05-02T15:40:22.494Z,4.97
2023-05-02T15:43:27.045Z,4.15
2023-05-02T15:46:30.194Z,3.60
2023-05-02T15:49:34.720Z,3.30
2023-05-02T15:52:38.028Z,2.70
2023-05-02T15:55:43.800Z,3.17
2023-05-02T15:58:48.516Z,4.03
2023-05-02T16:01:53.672Z,2.70
2023-05-02T16:04:57.089Z,2.70
2023-05-02T16:08:00.790Z,2.47
2023-05-02T16:11:04.252Z,3.03
2023-05-02T16:14:07.834Z,2.42
2023-05-02T16:17:11.117Z,3.30
2023-05-02T16:20:15.246Z,3.20
2023-05-02T16:23:18.726Z,3.13
2023-05-02T16:26:22.105Z,3.40
2023-05-02T16:29:25.905Z,3.42
2023-05-02T16:32:29.410Z,2.95
2023-05-02T16:35:32.900Z,3.35
2023-05-02T16:38:36.746Z,3.20
2023-05-02T16:41:40.841Z,2.70
2023-05-02T16:44:44.120Z,5.70
2023-05-02T16:47:47.578Z,3.58
2023-05-02T16:50:51.014Z,3.50
2023-05-02T16:53:54.521Z,4.30
2023-05-02T16:56:57.556Z,3.87
2023-05-02T17:00:02.441Z,3.60
2023-05-02T17:03:06.451Z,4.32
2023-05-02T17:06:10.045Z,4.05
2023-05-02T17:09:13.681Z,4.43
2023-05-02T17:12:22.621Z,4.00
2023-05-02T17:15:26.114Z,3.30
2023-05-02T17:18:29.953Z,3.78
2023-05-02T17:21:33.549Z,3.22
2023-05-02T17:24:37.532Z,3.30
2023-05-02T17:27:41.383Z,3.60
2023-05-02T17:30:44.926Z,4.00
2023-05-02T17:33:48.065Z,4.93
2023-05-02T17:36:51.657Z,5.70
2023-05-02T17:39:55.028Z,4.50
2023-05-02T17:42:59.431Z,3.77
2023-05-02T17:46:08.956Z,3.97
2023-05-02T17:49:12.607Z,3.80
2023-05-02T17:52:18.320Z,3.90
2023-05-02T17:55:22.028Z,3.87
2023-05-02T17:58:26.241Z,3.80
2023-05-02T18:01:31.635Z,3.78
2023-05-02T18:04:37.278Z,3.72
2023-05-02T18:07:41.263Z,3.80
2023-05-02T18:10:45.630Z,3.93
2023-05-02T18:13:50.022Z,4.10
2023-05-02T18:16:54.081Z,4.35
2023-05-02T18:19:57.510Z,3.70
2023-05-02T18:23:01.478Z,4.50
2023-05-02T18:26:12.493Z,3.97
2023-05-02T18:29:18.118Z,6.50
2023-05-02T18:32:22.140Z,4.78
2023-05-02T18:35:26.114Z,4.90
2023-05-02T18:38:30.016Z,3.37
2023-05-02T18:41:35.488Z,4.27
2023-05-02T18:44:39.116Z,3.80
2023-05-02T18:47:43.613Z,3.78
2023-05-02T18:50:49.964Z,3.60
2023-05-02T18:53:54.212Z,3.50
2023-05-02T18:56:57.608Z,3.63
2023-05-02T19:00:01.982Z,4.20
2023-05-02T19:03:06.080Z,4.60
2023-05-02T19:06:11.272Z,4.35
2023-05-02T19:09:16.289Z,4.37
2023-05-02T19:12:25.257Z,4.20
2023-05-02T19:15:28.901Z,4.47
2023-05-02T19:18:35.421Z,4.18
2023-05-02T19:21:39.575Z,4.57
2023-05-02T19:24:44.423Z,4.82
2023-05-02T19:27:50.312Z,5.30
2023-05-02T19:30:55.658Z,4.33
2023-05-02T19:34:02.728Z,4.53
2023-05-02T19:37:07.404Z,4.20
2023-05-02T19:40:12.560Z,4.80
2023-05-02T19:43:17.029Z,5.23
2023-05-02T19:46:21.307Z,4.73
2023-05-02T19:49:25.319Z,4.43
2023-05-02T19:52:32.333Z,4.37
2023-05-02T19:55:36.177Z,4.50
2023-05-02T19:58:39.583Z,4.80
2023-05-02T20:01:43.535Z,5.30
2023-05-02T20:04:48.022Z,5.53
2023-05-02T20:07:52.206Z,5.93
2023-05-02T20:10:57.426Z,5.60
2023-05-02T20:14:02.301Z,5.70
2023-05-02T20:17:05.956Z,5.20
2023-05-02T20:20:11.664Z,5.68
2023-05-02T20:23:16.190Z,4.93
2023-05-02T20:26:21.250Z,6.30
2023-05-02T20:29:25.525Z,5.30
2023-05-02T20:32:29.501Z,5.20
2023-05-02T20:35:37.972Z,5.32
2023-05-02T20:38:42.754Z,5.12
2023-05-02T20:41:47.803Z,5.30
2023-05-02T20:44:55.857Z,5.03
2023-05-02T20:48:00.945Z,5.67
2023-05-02T20:51:05.989Z,5.07
2023-05-02T20:54:09.923Z,5.53
2023-05-02T20:57:14.689Z,5.62
2023-05-02T21:00:19.994Z,5.43
2023-05-02T21:03:23.343Z,5.10
2023-05-02T21:06:27.147Z,5.18
2023-05-02T21:09:31.060Z,4.53
2023-05-02T21:12:34.816Z,4.45
2023-05-02T21:15:39.445Z,4.37
2023-05-02T21:18:43.316Z,4.10
2023-05-02T21:21:48.255Z,4.00
2023-05-02T21:24:51.880Z,3.83
2023-05-02T21:27:55.291Z,3.85
2023-05-02T21:30:58.975Z,3.53
2023-05-02T21:34:02.852Z,3.20
2023-05-02T21:37:06.859Z,3.25
2023-05-02T21:40:10.619Z,3.62
2023-05-02T21:43:14.870Z,3.15
2023-05-02T21:46:18.267Z,3.80
2023-05-02T21:49:22.482Z,3.80
2023-05-02T21:52:25.901Z,3.83
2023-05-02T21:55:29.255Z,3.70
2023-05-02T21:58:32.629Z,4.40
2023-05-02T22:01:36.168Z,4.40
2023-05-02T22:04:40.066Z,4.00
2023-05-02T22:07:43.361Z,4.53
2023-05-02T22:10:47.262Z,4.30
2023-05-02T22:13:50.457Z,4.22
2023-05-02T22:16:57.801Z,4.60
2023-05-02T22:20:03.144Z,5.20
2023-05-02T22:23:07.393Z,5.20
2023-05-02T22:26:10.597Z,5.00
2023-05-02T22:29:14.036Z,5.15
2023-05-02T22:32:17.496Z,5.07
2023-05-02T22:35:21.598Z,5.13
2023-05-02T22:38:25.470Z,5.28
2023-05-02T22:41:30.417Z,5.28
2023-05-02T22:44:37.912Z,6.00
2023-05-02T22:47:44.317Z,5.80
2023-05-02T22:50:48.929Z,5.93
2023-05-02T22:53:55.560Z,6.07
2023-05-02T22:56:59.256Z,6.62
2023-05-02T23:00:05.538Z,6.70
2023-05-02T23:03:11.582Z,6.80
2023-05-02T23:06:16.155Z,8.17
2023-05-02T23:09:19.526Z,7.65
2023-05-02T23:12:23.442Z,7.72
2023-05-02T23:15:26.751Z,8.43
2023-05-02T23:18:30.230Z,8.23
2023-05-02T23:21:33.498Z,9.40
2023-05-02T23:24:37.144Z,8.57
2023-05-02T23:27:40.791Z,8.75
2023-05-02T23:30:45.532Z,8.40
2023-05-02T23:33:49.015Z,9.13
2023-05-02T23:36:52.950Z,8.90
2023-05-02T23:39:57.831Z,9.13
2023-05-02T23:43:01.643Z,8.80
2023-05-02T23:46:04.762Z,9.18
2023-05-02T23:49:08.238Z,8.43
2023-05-02T23:52:11.887Z,8.93
2023-05-02T23:55:15.594Z,8.60
2023-05-02T23:58:20.157Z,8.98
